createdAt,value
2017-07-27T00:01:09.226Z,100326.77
2017-07-27T00:03:36.369Z,100321.89
2017-07-27T00:06:02.752Z,100323.31
2017-07-27T00:08:29.916Z,100319.74
2017-07-27T00:10:57.050Z,100330.34
2017-07-27T00:13:23.418Z,100329.92
2017-07-27T00:15:49.802Z,100331.66
2017-07-27T00:18:16.166Z,100328.16
2017-07-27T00:20:42.553Z,100326.36
2017-07-27T00:23:08.922Z,100325.10
2017-07-27T00:25:35.306Z,100328.16
2017-07-27T00:28:01.666Z,100319.81
2017-07-27T00:30:28.143Z,100322.45
2017-07-27T00:32:54.503Z,100323.78
2017-07-27T00:35:20.902Z,100322.86
2017-07-27T00:37:47.263Z,100317.67
2017-07-27T00:40:13.651Z,100318.08
2017-07-27T00:42:40.039Z,100315.84
2017-07-27T00:45:07.201Z,100313.19
2017-07-27T00:47:34.363Z,100314.20
2017-07-27T00:50:01.506Z,100314.61
2017-07-27T00:52:27.870Z,100317.77
2017-07-27T00:54:54.498Z,100319.91
2017-07-27T00:57:20.859Z,100318.58
2017-07-27T00:59:47.227Z,100321.33
2017-07-27T01:02:13.626Z,100321.73
2017-07-27T01:04:40.014Z,100321.73
2017-07-27T01:07:06.371Z,100316.44
2017-07-27T01:09:32.743Z,100319.09
2017-07-27T01:11:59.874Z,100316.44
2017-07-27T01:14:26.268Z,100309.81
2017-07-27T01:16:52.662Z,100320.41
2017-07-27T01:19:19.023Z,100312.97
2017-07-27T01:21:45.384Z,100312.97
2017-07-27T01:24:11.755Z,100313.38
2017-07-27T01:26:38.139Z,100306.77
2017-07-27T01:29:04.509Z,100300.14
2017-07-27T01:31:30.910Z,100300.20
2017-07-27T01:33:58.027Z,100295.35
2017-07-27T01:36:24.387Z,100296.67
2017-07-27T01:38:50.780Z,100297.16
2017-07-27T01:41:17.913Z,100292.70
2017-07-27T01:43:44.307Z,100286.56
2017-07-27T01:46:10.697Z,100287.06
2017-07-27T01:48:37.059Z,100288.80
2017-07-27T01:51:03.419Z,100290.63
2017-07-27T01:53:29.790Z,100292.77
2017-07-27T01:55:56.175Z,100293.69
2017-07-27T01:58:22.543Z,100291.03
2017-07-27T02:00:48.919Z,100296.33
2017-07-27T02:03:15.283Z,100294.59
2017-07-27T02:05:42.411Z,100292.87
2017-07-27T02:08:08.792Z,100294.19
2017-07-27T02:10:35.159Z,100297.24
2017-07-27T02:13:01.580Z,100294.19
2017-07-27T02:15:27.958Z,100297.24
2017-07-27T02:17:54.315Z,100283.19
2017-07-27T02:20:20.717Z,100287.58
2017-07-27T02:22:47.087Z,100283.60
2017-07-27T02:25:13.447Z,100282.27
2017-07-27T02:27:40.570Z,100277.90
2017-07-27T02:30:06.928Z,100277.90
2017-07-27T02:32:33.303Z,100277.90
2017-07-27T02:34:59.660Z,100266.90
2017-07-27T02:37:26.798Z,100263.75
2017-07-27T02:39:53.162Z,100265.48
2017-07-27T02:42:19.518Z,100255.40
2017-07-27T02:44:45.880Z,100255.91
2017-07-27T02:47:13.002Z,100255.91
2017-07-27T02:49:39.370Z,100247.05
2017-07-27T02:52:05.743Z,100247.45
2017-07-27T02:54:32.881Z,100245.72
2017-07-27T02:56:59.258Z,100251.42
2017-07-27T02:59:26.384Z,100248.78
2017-07-27T03:01:52.746Z,100245.72
2017-07-27T03:04:19.135Z,100243.55
2017-07-27T03:06:46.262Z,100247.52
2017-07-27T03:09:12.631Z,100246.64
2017-07-27T03:11:39.002Z,100245.72
2017-07-27T03:14:06.138Z,100244.40
2017-07-27T03:16:32.538Z,100246.20
2017-07-27T03:18:58.910Z,100241.34
2017-07-27T03:21:25.276Z,100238.19
2017-07-27T03:23:51.666Z,100241.34
2017-07-27T03:26:18.031Z,100241.75
2017-07-27T03:28:44.407Z,100236.05
2017-07-27T03:31:10.766Z,100234.79
2017-07-27T03:33:37.122Z,100236.93
2017-07-27T03:36:03.507Z,100235.61
2017-07-27T03:38:30.607Z,100233.87
2017-07-27T03:40:57.008Z,100239.17
2017-07-27T03:43:23.383Z,100239.58
2017-07-27T03:45:50.510Z,100228.98
2017-07-27T03:48:16.871Z,100237.84
2017-07-27T03:50:43.421Z,100233.47
2017-07-27T03:53:09.799Z,100225.52
2017-07-27T03:55:36.936Z,100220.23
2017-07-27T03:58:03.330Z,100222.47
2017-07-27T04:00:29.690Z,100220.17
2017-07-27T04:02:56.082Z,100225.94
2017-07-27T04:05:22.441Z,100225.94
2017-07-27T04:07:48.837Z,100238.77
2017-07-27T04:10:15.211Z,100240.49
2017-07-27T04:12:41.606Z,100240.91
2017-07-27T04:15:08.735Z,100243.08
2017-07-27T04:17:35.120Z,100237.44
2017-07-27T04:20:02.255Z,100232.95
2017-07-27T04:22:28.634Z,100235.61
2017-07-27T04:24:55.766Z,100237.44
2017-07-27T04:27:22.146Z,100231.32
2017-07-27T04:29:48.533Z,100221.55
2017-07-27T04:32:14.882Z,100230.41
2017-07-27T04:34:41.246Z,100232.14
2017-07-27T04:37:07.637Z,100227.77
2017-07-27T04:39:34.007Z,100235.20
2017-07-27T04:42:00.380Z,100230.41
2017-07-27T04:44:26.759Z,100224.70
2017-07-27T04:46:53.160Z,100218.91
2017-07-27T04:49:20.290Z,100231.73
2017-07-27T04:51:46.655Z,100236.62
2017-07-27T04:54:13.039Z,100230.41
2017-07-27T04:56:39.416Z,100240.49
2017-07-27T04:59:05.821Z,100236.20
2017-07-27T05:01:32.194Z,100237.03
2017-07-27T05:03:58.560Z,100241.91
2017-07-27T05:06:24.916Z,100247.61
2017-07-27T05:08:51.296Z,100244.56
2017-07-27T05:11:17.700Z,100235.20
2017-07-27T05:13:44.078Z,100228.17
2017-07-27T05:16:10.465Z,100226.03
2017-07-27T05:18:36.827Z,100227.04
2017-07-27T05:21:03.192Z,100227.35
2017-07-27T05:23:29.580Z,100236.62
2017-07-27T05:25:55.954Z,100225.62
2017-07-27T05:28:22.312Z,100221.23
2017-07-27T05:30:49.435Z,100220.73
2017-07-27T05:33:15.829Z,100219.92
2017-07-27T05:35:42.963Z,100219.92
2017-07-27T05:38:09.351Z,100224.30
2017-07-27T05:40:36.483Z,100227.35
2017-07-27T05:43:02.860Z,100234.89
2017-07-27T05:45:29.231Z,100240.18
2017-07-27T05:47:56.350Z,100242.00
2017-07-27T05:50:22.737Z,100237.94
2017-07-27T05:52:49.904Z,100241.91
2017-07-27T05:55:16.247Z,100253.82
2017-07-27T05:57:43.396Z,100243.73
2017-07-27T06:00:09.755Z,100249.12
2017-07-27T06:02:36.145Z,100244.66
2017-07-27T06:05:02.517Z,100246.48
2017-07-27T06:07:28.937Z,100246.80
2017-07-27T06:09:55.290Z,100251.68
2017-07-27T06:12:21.838Z,100258.70
2017-07-27T06:14:48.203Z,100265.42
2017-07-27T06:17:14.571Z,100275.91
2017-07-27T06:19:40.947Z,100278.66
2017-07-27T06:22:07.317Z,100277.73
2017-07-27T06:24:34.451Z,100281.30
2017-07-27T06:27:00.819Z,100281.30
2017-07-27T06:29:27.178Z,100277.33
2017-07-27T06:31:53.551Z,100274.28
2017-07-27T06:34:19.926Z,100268.54
2017-07-27T06:36:46.279Z,100268.48
2017-07-27T06:39:12.639Z,100260.95
2017-07-27T06:41:39.016Z,100267.16
2017-07-27T06:44:05.397Z,100268.07
2017-07-27T06:46:31.764Z,100272.86
2017-07-27T06:48:58.122Z,100278.16
2017-07-27T06:51:24.487Z,100283.86
2017-07-27T06:53:50.848Z,100283.45
2017-07-27T06:56:17.211Z,100280.30
2017-07-27T06:58:43.610Z,100292.70
2017-07-27T07:01:10.000Z,100288.73
2017-07-27T07:03:36.360Z,100283.03
2017-07-27T07:06:02.741Z,100283.03
2017-07-27T07:08:29.116Z,100279.88
2017-07-27T07:10:55.482Z,100290.47
2017-07-27T07:13:21.867Z,100286.09
2017-07-27T07:15:49.017Z,100285.69
2017-07-27T07:18:15.367Z,100288.64
2017-07-27T07:20:41.760Z,100288.39
2017-07-27T07:23:08.119Z,100287.13
2017-07-27T07:25:34.514Z,100291.11
2017-07-27T07:28:00.897Z,100286.22
2017-07-27T07:30:27.426Z,100294.57
2017-07-27T07:32:53.794Z,100302.61
2017-07-27T07:35:20.160Z,100295.89
2017-07-27T07:37:46.605Z,100310.95
2017-07-27T07:40:13.746Z,100315.75
2017-07-27T07:42:40.114Z,100312.28
2017-07-27T07:45:07.240Z,100314.02
2017-07-27T07:47:33.690Z,100317.98
2017-07-27T07:50:00.083Z,100313.98
2017-07-27T07:52:26.583Z,100313.80
2017-07-27T07:54:52.943Z,100315.46
2017-07-27T07:57:19.312Z,100315.02
2017-07-27T07:59:45.721Z,100320.56
2017-07-27T08:02:12.091Z,100320.98
2017-07-27T08:04:38.495Z,100320.50
2017-07-27T08:07:04.865Z,100322.23
2017-07-27T08:09:31.277Z,100322.96
2017-07-27T08:11:57.638Z,100322.39
2017-07-27T08:14:24.034Z,100322.80
2017-07-27T08:16:50.411Z,100322.70
2017-07-27T08:19:16.799Z,100322.45
2017-07-27T08:21:43.169Z,100335.13
2017-07-27T08:24:09.538Z,100335.34
2017-07-27T08:26:35.911Z,100325.09
2017-07-27T08:29:02.342Z,100324.91
2017-07-27T08:31:28.723Z,100320.78
2017-07-27T08:33:55.924Z,100313.25
2017-07-27T08:36:22.298Z,100309.68
2017-07-27T08:38:49.394Z,100319.36
2017-07-27T08:41:15.757Z,100326.80
2017-07-27T08:43:42.919Z,100320.18
2017-07-27T08:46:09.299Z,100319.30
2017-07-27T08:48:35.675Z,100321.03
2017-07-27T08:51:02.069Z,100318.37
2017-07-27T08:53:28.460Z,100325.82
2017-07-27T08:55:54.846Z,100323.58
2017-07-27T08:58:21.207Z,100326.73
2017-07-27T09:00:47.579Z,100304.64
2017-07-27T09:03:14.715Z,100296.59
2017-07-27T09:05:41.082Z,100314.72
2017-07-27T09:08:08.543Z,100316.05
2017-07-27T09:10:35.087Z,100307.12
2017-07-27T09:13:01.477Z,100305.52
2017-07-27T09:15:27.923Z,100315.53
2017-07-27T09:17:55.051Z,100329.03
2017-07-27T09:20:21.462Z,100324.14
2017-07-27T09:22:47.814Z,100334.64
2017-07-27T09:25:14.198Z,100335.96
2017-07-27T09:27:40.571Z,100326.95
2017-07-27T09:30:06.956Z,100306.58
2017-07-27T09:32:33.327Z,100308.72
2017-07-27T09:34:59.711Z,100320.98
2017-07-27T09:37:26.131Z,100328.02
2017-07-27T09:39:52.510Z,100314.27
2017-07-27T09:42:18.896Z,100313.25
2017-07-27T09:44:45.278Z,100317.57
2017-07-27T09:47:11.631Z,100323.69
2017-07-27T09:49:38.002Z,100320.12
2017-07-27T09:52:04.389Z,100317.82
2017-07-27T09:54:31.523Z,100315.17
2017-07-27T09:56:57.903Z,100322.52
2017-07-27T09:59:24.291Z,100327.31
2017-07-27T10:01:50.660Z,100317.06
2017-07-27T10:04:17.044Z,100326.73
2017-07-27T10:06:43.430Z,100317.28
2017-07-27T10:09:09.795Z,100326.08
2017-07-27T10:11:36.171Z,100338.91
2017-07-27T10:14:02.558Z,100337.58
2017-07-27T10:16:29.688Z,100344.52
2017-07-27T10:18:56.097Z,100339.63
2017-07-27T10:21:22.687Z,100344.52
2017-07-27T10:23:49.073Z,100330.77
2017-07-27T10:26:15.427Z,100328.53
2017-07-27T10:28:41.786Z,100328.02
2017-07-27T10:31:08.160Z,100328.47
2017-07-27T10:33:34.533Z,100320.02
2017-07-27T10:36:00.901Z,100308.66
2017-07-27T10:38:27.351Z,100306.36
2017-07-27T10:40:53.707Z,100304.53
2017-07-27T10:43:20.064Z,100301.47
2017-07-27T10:45:46.467Z,100309.73
2017-07-27T10:48:12.827Z,100323.80
2017-07-27T10:50:39.194Z,100335.30
2017-07-27T10:53:05.568Z,100335.30
2017-07-27T10:55:31.931Z,100333.98
2017-07-27T10:57:59.211Z,100336.63
2017-07-27T11:00:25.707Z,100333.51
2017-07-27T11:02:52.261Z,100338.70
2017-07-27T11:05:18.642Z,100342.78
2017-07-27T11:07:45.007Z,100329.84
2017-07-27T11:10:11.379Z,100321.90
2017-07-27T11:12:37.818Z,100329.84
2017-07-27T11:15:04.228Z,100335.14
2017-07-27T11:17:30.582Z,100332.18
2017-07-27T11:19:56.950Z,100332.91
2017-07-27T11:22:23.343Z,100338.05
2017-07-27T11:24:49.770Z,100330.50
2017-07-27T11:27:16.206Z,100328.58
2017-07-27T11:29:42.718Z,100332.65
2017-07-27T11:32:09.144Z,100341.83
2017-07-27T11:34:36.411Z,100341.41
2017-07-27T11:37:02.774Z,100344.00
2017-07-27T11:39:29.149Z,100350.18
2017-07-27T11:41:55.528Z,100345.39
2017-07-27T11:44:21.899Z,100334.73
2017-07-27T11:46:48.247Z,100327.19
2017-07-27T11:49:14.618Z,100314.86
2017-07-27T11:51:41.001Z,100312.11
2017-07-27T11:54:07.388Z,100323.02
2017-07-27T11:56:33.755Z,100329.14
2017-07-27T11:59:00.115Z,100321.13
2017-07-27T12:01:26.615Z,100324.69
2017-07-27T12:03:54.012Z,100329.08
2017-07-27T12:06:21.130Z,100318.37
2017-07-27T12:08:47.555Z,100315.16
2017-07-27T12:11:13.955Z,100311.39
2017-07-27T12:13:40.335Z,100311.19
2017-07-27T12:16:06.814Z,100318.47
2017-07-27T12:18:33.214Z,100324.99
2017-07-27T12:20:59.579Z,100324.99
2017-07-27T12:23:25.962Z,100328.91
2017-07-27T12:25:52.338Z,100328.97
2017-07-27T12:28:18.733Z,100332.94
2017-07-27T12:30:45.103Z,100332.47
2017-07-27T12:33:11.509Z,100318.20
2017-07-27T12:35:37.870Z,100305.05
2017-07-27T12:38:04.239Z,100293.19
2017-07-27T12:40:30.639Z,100288.74
2017-07-27T12:42:57.009Z,100280.37
2017-07-27T12:45:24.163Z,100278.98
2017-07-27T12:47:50.523Z,100273.23
2017-07-27T12:50:17.658Z,100258.66
2017-07-27T12:52:44.011Z,100266.13
2017-07-27T12:55:10.395Z,100276.54
2017-07-27T12:57:37.545Z,100274.80
2017-07-27T13:00:03.933Z,100282.69
2017-07-27T13:02:30.315Z,100275.22
2017-07-27T13:04:57.101Z,100275.45
2017-07-27T13:07:23.474Z,100280.76
2017-07-27T13:09:49.851Z,100284.23
2017-07-27T13:12:17.359Z,100279.75
2017-07-27T13:14:43.735Z,100263.78
2017-07-27T13:17:10.115Z,100261.54
2017-07-27T13:19:36.490Z,100267.25
2017-07-27T13:22:02.880Z,100275.09
2017-07-27T13:24:29.237Z,100276.93
2017-07-27T13:26:56.378Z,100282.55
2017-07-27T13:29:22.760Z,100287.13
2017-07-27T13:31:49.930Z,100282.89
2017-07-27T13:34:17.066Z,100292.57
2017-07-27T13:36:43.438Z,100287.68
2017-07-27T13:39:10.588Z,100303.48
2017-07-27T13:41:36.984Z,100316.73
2017-07-27T13:44:03.379Z,100315.86
2017-07-27T13:46:29.775Z,100314.84
2017-07-27T13:48:56.139Z,100308.22
2017-07-27T13:51:22.512Z,100305.47
2017-07-27T13:53:48.892Z,100297.86
2017-07-27T13:56:15.339Z,100277.56
2017-07-27T13:58:41.712Z,100280.43
2017-07-27T14:01:08.088Z,100279.11
2017-07-27T14:03:34.460Z,100276.86
2017-07-27T14:06:00.863Z,100286.58
2017-07-27T14:08:28.116Z,100288.31
2017-07-27T14:10:54.492Z,100284.75
2017-07-27T14:13:20.886Z,100271.40
2017-07-27T14:15:47.274Z,100267.42
2017-07-27T14:18:13.634Z,100254.58
2017-07-27T14:20:40.786Z,100256.14
2017-07-27T14:23:07.177Z,100255.73
2017-07-27T14:25:33.534Z,100255.64
2017-07-27T14:27:59.907Z,100255.54
2017-07-27T14:30:26.283Z,100257.71
2017-07-27T14:32:52.663Z,100254.14
2017-07-27T14:35:19.063Z,100250.48
2017-07-27T14:37:45.442Z,100255.78
2017-07-27T14:40:11.808Z,100243.59
2017-07-27T14:42:38.413Z,100228.64
2017-07-27T14:45:04.782Z,100228.47
2017-07-27T14:47:31.135Z,100231.44
2017-07-27T14:49:57.513Z,100221.17
2017-07-27T14:52:23.880Z,100214.84
2017-07-27T14:54:50.242Z,100217.44
2017-07-27T14:57:16.645Z,100208.46
2017-07-27T14:59:43.804Z,100212.44
2017-07-27T15:02:10.174Z,100213.66
2017-07-27T15:04:37.406Z,100215.74
2017-07-27T15:07:03.787Z,100209.35
2017-07-27T15:09:30.158Z,100209.35
2017-07-27T15:11:56.683Z,100211.91
2017-07-27T15:14:23.053Z,100213.23
2017-07-27T15:16:49.436Z,100217.52
2017-07-27T15:19:15.792Z,100209.91
2017-07-27T15:21:42.203Z,100204.59
2017-07-27T15:24:08.574Z,100213.37
2017-07-27T15:26:34.956Z,100216.73
2017-07-27T15:29:01.432Z,100209.63
2017-07-27T15:31:28.604Z,100211.84
2017-07-27T15:33:54.980Z,100205.14
2017-07-27T15:36:21.512Z,100211.27
2017-07-27T15:38:48.746Z,100213.41
2017-07-27T15:41:15.127Z,100204.47
2017-07-27T15:43:41.494Z,100204.47
2017-07-27T15:46:07.858Z,100196.92
2017-07-27T15:48:34.223Z,100200.30
2017-07-27T15:51:00.631Z,100209.16
2017-07-27T15:53:28.107Z,100206.85
2017-07-27T15:55:54.494Z,100199.78
2017-07-27T15:58:20.867Z,100204.61
2017-07-27T16:00:47.234Z,100202.36
2017-07-27T16:03:13.587Z,100193.49
2017-07-27T16:05:39.966Z,100185.56
2017-07-27T16:08:06.358Z,100190.73
2017-07-27T16:10:32.735Z,100188.45
2017-07-27T16:12:59.125Z,100176.88
2017-07-27T16:15:25.520Z,100176.64
2017-07-27T16:17:51.911Z,100181.47
2017-07-27T16:20:19.035Z,100173.95
2017-07-27T16:22:45.429Z,100169.63
2017-07-27T16:25:12.563Z,100166.67
2017-07-27T16:27:38.936Z,100172.55
2017-07-27T16:30:06.080Z,100165.69
2017-07-27T16:32:32.467Z,100162.73
2017-07-27T16:34:58.843Z,100163.74
2017-07-27T16:37:25.213Z,100154.12
2017-07-27T16:39:51.658Z,100156.06
2017-07-27T16:42:18.022Z,100149.50
2017-07-27T16:44:44.409Z,100151.94
2017-07-27T16:47:11.550Z,100150.62
2017-07-27T16:49:38.728Z,100151.19
2017-07-27T16:52:05.114Z,100156.19
2017-07-27T16:54:31.470Z,100153.13
2017-07-27T16:56:58.052Z,100159.41
2017-07-27T16:59:24.407Z,100160.84
2017-07-27T17:01:50.803Z,100164.91
2017-07-27T17:04:17.179Z,100165.89
2017-07-27T17:06:43.539Z,100164.67
2017-07-27T17:09:09.909Z,100164.67
2017-07-27T17:11:36.276Z,100162.59
2017-07-27T17:14:02.704Z,100160.86
2017-07-27T17:16:29.071Z,100163.20
2017-07-27T17:18:55.439Z,100162.80
2017-07-27T17:21:21.835Z,100161.54
2017-07-27T17:23:48.202Z,100172.24
2017-07-27T17:26:14.563Z,100166.63
2017-07-27T17:28:40.961Z,100155.11
2017-07-27T17:31:07.343Z,100148.55
2017-07-27T17:33:33.744Z,100147.73
2017-07-27T17:36:00.107Z,100160.34
2017-07-27T17:38:26.759Z,100158.13
2017-07-27T17:40:53.148Z,100159.52
2017-07-27T17:43:19.503Z,100163.61
2017-07-27T17:45:45.880Z,100165.80
2017-07-27T17:48:12.268Z,100162.47
2017-07-27T17:50:38.639Z,100165.53
2017-07-27T17:53:05.015Z,100164.03
2017-07-27T17:55:31.391Z,100169.65
2017-07-27T17:57:58.519Z,100172.13
2017-07-27T18:00:24.901Z,100168.97
2017-07-27T18:02:51.328Z,100175.43
2017-07-27T18:05:17.761Z,100174.41
2017-07-27T18:07:44.149Z,100176.59
2017-07-27T18:10:10.517Z,100177.00
2017-07-27T18:12:37.671Z,100185.26
2017-07-27T18:15:04.040Z,100187.00
2017-07-27T18:17:30.427Z,100192.70
2017-07-27T18:19:56.807Z,100191.72
2017-07-27T18:22:23.203Z,100190.30
2017-07-27T18:24:49.567Z,100186.63
2017-07-27T18:27:15.973Z,100188.80
2017-07-27T18:29:42.450Z,100196.25
2017-07-27T18:32:08.818Z,100193.19
2017-07-27T18:34:35.222Z,100191.36
2017-07-27T18:37:02.378Z,100194.00
2017-07-27T18:39:28.751Z,100199.41
2017-07-27T18:41:55.898Z,100198.39
2017-07-27T18:44:22.264Z,100194.00
2017-07-27T18:46:49.393Z,100198.30
2017-07-27T18:49:15.792Z,100202.68
2017-07-27T18:51:42.212Z,100202.27
2017-07-27T18:54:08.580Z,100205.84
2017-07-27T18:56:34.947Z,100209.30
2017-07-27T18:59:01.348Z,100211.95
2017-07-27T19:01:27.710Z,100210.97
2017-07-27T19:03:54.151Z,100209.75
2017-07-27T19:06:20.540Z,100203.84
2017-07-27T19:08:46.934Z,100203.52
2017-07-27T19:11:13.304Z,100200.88
2017-07-27T19:13:39.677Z,100196.90
2017-07-27T19:16:06.811Z,100200.47
2017-07-27T19:18:33.148Z,100198.62
2017-07-27T19:20:59.534Z,100201.35
2017-07-27T19:23:25.918Z,100207.00
2017-07-27T19:25:52.652Z,100212.30
2017-07-27T19:28:20.805Z,100206.17
2017-07-27T19:30:47.203Z,100212.30
2017-07-27T19:33:14.427Z,100216.78
2017-07-27T19:35:40.804Z,100214.13
2017-07-27T19:38:07.208Z,100214.20
2017-07-27T19:40:33.576Z,100221.23
2017-07-27T19:43:00.027Z,100216.37
2017-07-27T19:45:26.644Z,100215.94
2017-07-27T19:47:53.011Z,100208.48
2017-07-27T19:50:19.399Z,100209.81
2017-07-27T19:52:45.790Z,100212.47
2017-07-27T19:55:12.175Z,100212.56
2017-07-27T19:57:38.543Z,100220.52
2017-07-27T20:00:04.927Z,100223.58
2017-07-27T20:02:31.302Z,100226.73
2017-07-27T20:04:57.852Z,100224.09
2017-07-27T20:07:24.261Z,100232.04
2017-07-27T20:09:50.630Z,100230.62
2017-07-27T20:12:16.967Z,100234.69
2017-07-27T20:14:44.121Z,100237.75
2017-07-27T20:17:10.478Z,100241.73
2017-07-27T20:19:37.628Z,100248.77
2017-07-27T20:22:04.058Z,100244.89
2017-07-27T20:24:30.622Z,100244.48
2017-07-27T20:26:56.999Z,100242.75
2017-07-27T20:29:23.430Z,100247.39
2017-07-27T20:31:49.800Z,100248.58
2017-07-27T20:34:16.943Z,100248.23
2017-07-27T20:36:43.326Z,100253.95
2017-07-27T20:39:10.472Z,100254.87
2017-07-27T20:41:36.888Z,100256.29
2017-07-27T20:44:03.260Z,100259.34
2017-07-27T20:46:29.641Z,100259.75
2017-07-27T20:49:06.323Z,100263.87
2017-07-27T20:51:32.676Z,100270.34
2017-07-27T20:53:59.846Z,100271.16
2017-07-27T20:56:26.977Z,100271.73
2017-07-27T20:58:53.344Z,100265.71
2017-07-27T21:01:19.727Z,100280.20
2017-07-27T21:03:46.088Z,100282.44
2017-07-27T21:06:12.452Z,100279.47
2017-07-27T21:08:38.831Z,100282.95
2017-07-27T21:11:05.193Z,100282.54
2017-07-27T21:13:31.564Z,100281.21
2017-07-27T21:15:58.071Z,100282.13
2017-07-27T21:18:24.450Z,100285.59
2017-07-27T21:20:50.819Z,100280.70
2017-07-27T21:23:17.191Z,100287.23
2017-07-27T21:25:43.573Z,100295.28
2017-07-27T21:28:09.928Z,100294.87
2017-07-27T21:30:36.305Z,100295.69
2017-07-27T21:33:02.667Z,100301.00
2017-07-27T21:35:29.808Z,100300.48
2017-07-27T21:37:56.216Z,100300.02
2017-07-27T21:40:22.590Z,100301.70
